Time;durP1;ratioP1;P1;durP2;ratioP2;P2;SDS_P1;SDS_P2;PMS_P1;PMS_P2;Temp;Humidity;BMP_temperature;BMP_pressure;BME280_temperature;BME280_humidity;BME280_pressure;Samples;Min_cycle;Max_cycle;Signal;HPM_P1;HPM_P2
2022/03/08 00:01:39;;;;;;;10.87;4.80;;;;;;;;;;5074253;28;20330;-49
2022/03/08 00:04:06;;;;;;;10.40;5.30;;;;;;;;;;5074472;28;20234;-47
2022/03/08 00:06:34;;;;;;;10.37;5.10;;;;;;;;;;5074689;28;20226;-48
2022/03/08 00:09:01;;;;;;;9.43;4.93;;;;;;;;;;5074349;28;20233;-46
2022/03/08 00:11:28;;;;;;;9.07;4.83;;;;;;;;;;5074442;28;20680;-46
2022/03/08 00:13:55;;;;;;;9.43;5.20;;;;;;;;;;5074350;28;20288;-46
2022/03/08 00:16:22;;;;;;;10.07;5.13;;;;;;;;;;5074258;28;20282;-48
2022/03/08 00:18:49;;;;;;;10.23;5.57;;;;;;;;;;5074149;28;20237;-47
2022/03/08 00:21:17;;;;;;;8.80;5.20;;;;;;;;;;5074431;28;20239;-47
2022/03/08 00:23:45;;;;;;;10.40;5.17;;;;;;;;;;5074551;28;20223;-48
2022/03/08 00:26:12;;;;;;;7.43;4.60;;;;;;;;;;5074235;28;20241;-47
2022/03/08 00:28:39;;;;;;;8.73;4.73;;;;;;;;;;5074435;28;20238;-46
2022/03/08 00:31:07;;;;;;;8.00;4.90;;;;;;;;;;5074449;28;20234;-47
2022/03/08 00:33:34;;;;;;;9.50;4.90;;;;;;;;;;5074616;28;20579;-47
2022/03/08 00:36:03;;;;;;;9.37;4.97;;;;;;;;;;5074151;28;20538;-47
2022/03/08 00:38:31;;;;;;;6.10;4.63;;;;;;;;;;5074793;28;20290;-47
2022/03/08 00:41:00;;;;;;;8.93;5.00;;;;;;;;;;5074269;28;20247;-46
2022/03/08 00:43:27;;;;;;;6.70;4.17;;;;;;;;;;5073987;28;20222;-48
2022/03/08 00:45:54;;;;;;;9.73;4.50;;;;;;;;;;5074027;28;20270;-47
2022/03/08 00:48:22;;;;;;;8.23;4.33;;;;;;;;;;5074206;28;20230;-47
2022/03/08 00:50:49;;;;;;;11.17;4.77;;;;;;;;;;5056498;28;20199;-47
2022/03/08 00:53:16;;;;;;;13.50;4.77;;;;;;;;;;5073934;28;20290;-47
2022/03/08 00:55:45;;;;;;;8.73;5.10;;;;;;;;;;5073965;28;20642;-45
2022/03/08 00:58:12;;;;;;;8.03;4.87;;;;;;;;;;5056366;28;20199;-47
2022/03/08 01:00:40;;;;;;;8.57;4.37;;;;;;;;;;5057360;28;20235;-46
2022/03/08 01:03:07;;;;;;;9.93;4.63;;;;;;;;;;5077538;28;20697;-46
2022/03/08 01:05:35;;;;;;;9.43;4.30;;;;;;;;;;5060174;28;20560;-46
2022/03/08 01:08:04;;;;;;;9.70;4.43;;;;;;;;;;5077372;28;20645;-46
2022/03/08 01:10:31;;;;;;;10.13;5.10;;;;;;;;;;5077500;28;20257;-46
2022/03/08 01:12:59;;;;;;;7.87;4.90;;;;;;;;;;5077156;28;20203;-46
2022/03/08 01:15:27;;;;;;;8.93;4.50;;;;;;;;;;5059887;28;20684;-46
2022/03/08 01:17:56;;;;;;;10.50;4.70;;;;;;;;;;5077432;28;20203;-45
2022/03/08 01:20:23;;;;;;;10.10;4.37;;;;;;;;;;5077158;28;20282;-46
2022/03/08 01:22:53;;;;;;;7.57;4.07;;;;;;;;;;5077129;28;20223;-46
2022/03/08 01:25:22;;;;;;;5.77;3.83;;;;;;;;;;5059852;28;20211;-45
2022/03/08 01:27:52;;;;;;;9.30;4.53;;;;;;;;;;5059831;28;20272;-46
2022/03/08 01:30:22;;;;;;;6.90;4.07;;;;;;;;;;5077045;28;20256;-46
2022/03/08 01:32:50;;;;;;;11.20;4.90;;;;;;;;;;5076878;28;20187;-46
2022/03/08 01:35:18;;;;;;;6.57;3.87;;;;;;;;;;5077102;28;20214;-46
2022/03/08 01:37:45;;;;;;;8.17;4.23;;;;;;;;;;5076948;28;20316;-47
2022/03/08 01:40:15;;;;;;;8.13;4.53;;;;;;;;;;5015503;28;20206;-47
2022/03/08 01:42:46;;;;;;;8.33;4.13;;;;;;;;;;4999504;28;20321;-48
2022/03/08 01:45:17;;;;;;;10.87;3.87;;;;;;;;;;4999067;28;20217;-47
2022/03/08 01:47:45;;;;;;;8.33;4.17;;;;;;;;;;5015325;28;20285;-50
2022/03/08 01:50:13;;;;;;;10.80;4.83;;;;;;;;;;4998897;28;20240;-48
2022/03/08 01:52:41;;;;;;;7.00;4.13;;;;;;;;;;5031663;28;20271;-50
2022/03/08 01:55:11;;;;;;;9.13;4.67;;;;;;;;;;5015473;28;20288;-47
2022/03/08 01:57:38;;;;;;;9.90;4.47;;;;;;;;;;5015245;28;20224;-49
2022/03/08 02:00:08;;;;;;;10.07;4.27;;;;;;;;;;5015148;28;20206;-47
2022/03/08 02:02:39;;;;;;;11.00;4.97;;;;;;;;;;5014744;28;20688;-47
2022/03/08 02:05:07;;;;;;;9.53;4.33;;;;;;;;;;5015046;28;20618;-47
2022/03/08 02:07:34;;;;;;;9.07;4.87;;;;;;;;;;5014883;28;20225;-48
2022/03/08 02:10:03;;;;;;;11.67;5.00;;;;;;;;;;5014899;28;20243;-46
2022/03/08 02:12:31;;;;;;;10.90;4.50;;;;;;;;;;5075773;28;20239;-46
2022/03/08 02:14:58;;;;;;;10.50;5.03;;;;;;;;;;5076110;28;20600;-46
2022/03/08 02:17:25;;;;;;;11.03;5.07;;;;;;;;;;5076162;28;20665;-48
2022/03/08 02:19:56;;;;;;;10.07;5.40;;;;;;;;;;5075921;28;20199;-46
2022/03/08 02:22:23;;;;;;;10.13;5.07;;;;;;;;;;5076420;28;20308;-46
2022/03/08 02:24:52;;;;;;;8.10;4.70;;;;;;;;;;5076104;28;20239;-45
2022/03/08 02:27:19;;;;;;;12.23;5.00;;;;;;;;;;5076002;28;20234;-47
2022/03/08 02:29:48;;;;;;;7.97;4.87;;;;;;;;;;5075832;28;20585;-46
2022/03/08 02:32:16;;;;;;;9.30;4.83;;;;;;;;;;5075699;28;20203;-46
2022/03/08 02:34:43;;;;;;;11.37;5.17;;;;;;;;;;5075913;28;20222;-46
2022/03/08 02:37:13;;;;;;;10.57;5.17;;;;;;;;;;5075887;28;20210;-46
2022/03/08 02:39:40;;;;;;;15.00;5.07;;;;;;;;;;5068490;28;20227;-47
2022/03/08 02:42:08;;;;;;;9.97;5.33;;;;;;;;;;5059260;28;20224;-47
2022/03/08 02:44:36;;;;;;;8.60;4.70;;;;;;;;;;5055685;28;20200;-46
2022/03/08 02:47:04;;;;;;;10.03;5.50;;;;;;;;;;5055735;28;20289;-47
2022/03/08 02:49:32;;;;;;;9.37;5.37;;;;;;;;;;5038292;28;20617;-46
2022/03/08 02:51:59;;;;;;;9.93;5.63;;;;;;;;;;5055562;28;20595;-46
2022/03/08 02:54:26;;;;;;;9.80;5.03;;;;;;;;;;5055605;28;20223;-47
2022/03/08 02:56:54;;;;;;;11.97;4.73;;;;;;;;;;5055169;28;20212;-46
2022/03/08 02:59:22;;;;;;;9.30;4.33;;;;;;;;;;5055193;28;20220;-47
2022/03/08 03:01:49;;;;;;;9.30;4.40;;;;;;;;;;5054964;28;20693;-46
2022/03/08 03:04:16;;;;;;;8.63;4.67;;;;;;;;;;5055422;28;20196;-46
2022/03/08 03:06:44;;;;;;;8.03;4.63;;;;;;;;;;5055379;28;20227;-46
2022/03/08 03:09:11;;;;;;;10.33;4.60;;;;;;;;;;5055388;28;20204;-46
2022/03/08 03:11:38;;;;;;;8.67;4.40;;;;;;;;;;5055225;28;20219;-47
2022/03/08 03:14:06;;;;;;;8.30;4.30;;;;;;;;;;5055592;28;20215;-46
2022/03/08 03:16:33;;;;;;;7.20;4.43;;;;;;;;;;5055279;28;20750;-46
2022/03/08 03:19:00;;;;;;;8.63;4.57;;;;;;;;;;5055172;28;20200;-46
2022/03/08 03:21:27;;;;;;;9.33;4.90;;;;;;;;;;5054854;28;20219;-48
2022/03/08 03:23:54;;;;;;;8.80;4.37;;;;;;;;;;5054292;28;20210;-46
2022/03/08 03:26:21;;;;;;;10.23;4.50;;;;;;;;;;5054714;28;20293;-46
2022/03/08 03:28:49;;;;;;;8.33;4.73;;;;;;;;;;5054851;28;20235;-46
2022/03/08 03:31:17;;;;;;;8.07;4.47;;;;;;;;;;5055217;28;20302;-47
2022/03/08 03:33:45;;;;;;;7.47;4.13;;;;;;;;;;5054747;28;20196;-47
2022/03/08 03:36:12;;;;;;;12.23;4.20;;;;;;;;;;5054842;28;20246;-46
2022/03/08 03:38:39;;;;;;;7.40;4.50;;;;;;;;;;5054902;28;20204;-46
2022/03/08 03:41:06;;;;;;;7.23;4.10;;;;;;;;;;5054505;28;20223;-47
2022/03/08 03:43:34;;;;;;;9.77;4.80;;;;;;;;;;5054805;28;20220;-46
2022/03/08 03:46:01;;;;;;;8.90;4.03;;;;;;;;;;5054746;28;20262;-46
2022/03/08 03:48:29;;;;;;;9.70;4.50;;;;;;;;;;5055038;28;20208;-46
2022/03/08 03:50:56;;;;;;;9.00;4.90;;;;;;;;;;5054755;28;20549;-46
2022/03/08 03:53:23;;;;;;;10.27;5.10;;;;;;;;;;5054385;28;20265;-45
2022/03/08 03:55:51;;;;;;;8.67;4.70;;;;;;;;;;5054313;28;20732;-46
2022/03/08 03:58:18;;;;;;;7.73;4.70;;;;;;;;;;5054473;28;20228;-46
2022/03/08 04:00:45;;;;;;;8.07;4.90;;;;;;;;;;5054497;28;20204;-46
2022/03/08 04:03:15;;;;;;;9.83;4.63;;;;;;;;;;5054592;28;20581;-47
2022/03/08 04:05:42;;;;;;;10.67;5.03;;;;;;;;;;5054393;28;20677;-46
2022/03/08 04:08:09;;;;;;;9.03;4.90;;;;;;;;;;5054753;28;20255;-46
2022/03/08 04:10:37;;;;;;;11.33;4.67;;;;;;;;;;5054620;28;20196;-46
2022/03/08 04:13:04;;;;;;;10.10;5.00;;;;;;;;;;5054559;28;20631;-47
2022/03/08 04:15:31;;;;;;;7.97;4.20;;;;;;;;;;5054359;28;20257;-46
2022/03/08 04:17:58;;;;;;;9.23;5.00;;;;;;;;;;5054435;28;20712;-46
2022/03/08 04:20:25;;;;;;;10.23;5.07;;;;;;;;;;5054317;28;20227;-46
2022/03/08 04:22:53;;;;;;;11.50;5.73;;;;;;;;;;5054274;28;20685;-45
2022/03/08 04:25:20;;;;;;;8.73;4.60;;;;;;;;;;5054253;28;20204;-46
2022/03/08 04:27:47;;;;;;;12.40;5.83;;;;;;;;;;5054654;28;20650;-47
2022/03/08 04:30:15;;;;;;;9.63;5.17;;;;;;;;;;5054288;28;20204;-46
2022/03/08 04:32:42;;;;;;;11.03;6.00;;;;;;;;;;5054007;28;20294;-46
2022/03/08 04:35:09;;;;;;;12.73;6.13;;;;;;;;;;5055835;28;20670;-46
2022/03/08 04:37:37;;;;;;;11.60;6.43;;;;;;;;;;5058010;28;20224;-46
2022/03/08 04:40:05;;;;;;;13.80;6.93;;;;;;;;;;5057812;28;20234;-46
2022/03/08 04:42:33;;;;;;;16.90;7.73;;;;;;;;;;5057638;28;20247;-46
2022/03/08 04:45:00;;;;;;;19.33;8.87;;;;;;;;;;5057656;28;20238;-47
2022/03/08 04:47:27;;;;;;;17.70;8.80;;;;;;;;;;5057461;28;20215;-48
2022/03/08 04:49:55;;;;;;;24.90;9.93;;;;;;;;;;5057679;28;20311;-47
2022/03/08 04:52:22;;;;;;;25.03;9.53;;;;;;;;;;5057679;28;20211;-47
2022/03/08 04:54:49;;;;;;;21.07;9.23;;;;;;;;;;5057523;28;20196;-46
2022/03/08 04:57:17;;;;;;;21.73;10.07;;;;;;;;;;5039835;28;20238;-46
2022/03/08 04:59:44;;;;;;;25.17;10.83;;;;;;;;;;5057231;28;20207;-48
2022/03/08 05:02:11;;;;;;;20.07;9.70;;;;;;;;;;5064619;28;20669;-47
2022/03/08 05:04:38;;;;;;;19.33;10.40;;;;;;;;;;5074356;28;20278;-47
2022/03/08 05:07:05;;;;;;;24.90;10.43;;;;;;;;;;5071552;28;20227;-46
2022/03/08 05:09:32;;;;;;;27.43;10.73;;;;;;;;;;5076081;28;20254;-46
2022/03/08 05:12:00;;;;;;;22.07;10.63;;;;;;;;;;5075651;28;20227;-49
2022/03/08 05:14:27;;;;;;;24.37;10.57;;;;;;;;;;5076240;28;20227;-46
2022/03/08 05:16:54;;;;;;;25.37;10.77;;;;;;;;;;5073393;28;20312;-47
2022/03/08 05:19:21;;;;;;;31.07;9.93;;;;;;;;;;5056094;28;20708;-46
2022/03/08 05:21:49;;;;;;;16.83;9.27;;;;;;;;;;5055668;28;20317;-49
2022/03/08 05:24:15;;;;;;;17.97;8.60;;;;;;;;;;5056172;28;20247;-46
2022/03/08 05:26:43;;;;;;;19.77;9.60;;;;;;;;;;5055741;28;20256;-46
2022/03/08 05:29:10;;;;;;;16.77;9.00;;;;;;;;;;5055762;28;20311;-46
2022/03/08 05:31:38;;;;;;;21.63;9.20;;;;;;;;;;5054870;28;20263;-47
2022/03/08 05:34:05;;;;;;;19.43;9.60;;;;;;;;;;5056132;28;20235;-46
2022/03/08 05:36:33;;;;;;;14.47;8.57;;;;;;;;;;5055799;28;20252;-46
2022/03/08 05:39:00;;;;;;;20.27;8.80;;;;;;;;;;5055896;28;20220;-49
2022/03/08 05:41:28;;;;;;;19.90;8.40;;;;;;;;;;5055591;28;20224;-50
2022/03/08 05:43:55;;;;;;;15.23;9.23;;;;;;;;;;5055932;28;20232;-49
2022/03/08 05:46:22;;;;;;;17.33;7.90;;;;;;;;;;5057350;28;20314;-47
2022/03/08 05:48:49;;;;;;;17.77;8.10;;;;;;;;;;5075097;28;20227;-49
2022/03/08 05:51:16;;;;;;;20.30;9.43;;;;;;;;;;5074951;28;20615;-52
2022/03/08 05:53:43;;;;;;;16.03;10.33;;;;;;;;;;5075817;28;20231;-49
2022/03/08 05:56:11;;;;;;;14.03;9.13;;;;;;;;;;5075369;28;20258;-48
2022/03/08 05:58:38;;;;;;;18.00;10.13;;;;;;;;;;5075322;28;20245;-46
2022/03/08 06:01:05;;;;;;;13.80;8.93;;;;;;;;;;5057132;28;20297;-47
2022/03/08 06:03:32;;;;;;;15.13;7.77;;;;;;;;;;5075255;28;20243;-47
2022/03/08 06:06:00;;;;;;;15.37;7.43;;;;;;;;;;5075624;28;20696;-50
2022/03/08 06:08:28;;;;;;;12.03;6.43;;;;;;;;;;5075329;28;20234;-46
2022/03/08 06:10:55;;;;;;;16.67;7.07;;;;;;;;;;5075075;28;20258;-50
2022/03/08 06:13:22;;;;;;;12.37;6.93;;;;;;;;;;5075132;28;20231;-47
2022/03/08 06:15:49;;;;;;;13.57;6.73;;;;;;;;;;5075115;28;20262;-46
2022/03/08 06:18:16;;;;;;;13.80;7.17;;;;;;;;;;5074610;28;20228;-49
2022/03/08 06:20:43;;;;;;;14.40;7.53;;;;;;;;;;5075259;28;20254;-47
2022/03/08 06:23:10;;;;;;;15.67;7.20;;;;;;;;;;5074582;28;20249;-49
2022/03/08 06:25:38;;;;;;;14.50;6.73;;;;;;;;;;5075426;28;20321;-46
2022/03/08 06:28:06;;;;;;;13.40;6.97;;;;;;;;;;5074552;28;20651;-47
2022/03/08 06:30:34;;;;;;;13.87;7.70;;;;;;;;;;5074702;28;20266;-48
2022/03/08 06:33:01;;;;;;;15.23;6.83;;;;;;;;;;5074477;28;20234;-49
2022/03/08 06:35:28;;;;;;;12.50;5.97;;;;;;;;;;5075027;28;20223;-48
2022/03/08 06:37:55;;;;;;;12.97;6.90;;;;;;;;;;5074550;28;20312;-48
2022/03/08 06:40:22;;;;;;;11.93;6.13;;;;;;;;;;5075161;28;20231;-46
2022/03/08 06:42:50;;;;;;;12.07;6.20;;;;;;;;;;5074432;28;20269;-48
2022/03/08 06:45:17;;;;;;;10.53;5.57;;;;;;;;;;5071428;28;20246;-50
2022/03/08 06:47:44;;;;;;;7.67;4.67;;;;;;;;;;5066937;28;20613;-48
2022/03/08 06:50:11;;;;;;;4.97;3.13;;;;;;;;;;5073123;28;20211;-47
2022/03/08 06:52:38;;;;;;;8.77;4.93;;;;;;;;;;5056968;28;20259;-47
2022/03/08 06:55:06;;;;;;;9.07;4.80;;;;;;;;;;5073185;28;20211;-47
2022/03/08 06:57:33;;;;;;;6.37;4.50;;;;;;;;;;5072717;28;20246;-47
2022/03/08 07:00:00;;;;;;;7.23;4.40;;;;;;;;;;5072342;28;20227;-47
2022/03/08 07:02:28;;;;;;;7.73;5.17;;;;;;;;;;5069971;28;20692;-46
2022/03/08 07:04:55;;;;;;;9.67;5.10;;;;;;;;;;5055362;28;20301;-50
2022/03/08 07:07:22;;;;;;;6.20;3.23;;;;;;;;;;5072666;28;20231;-49
2022/03/08 07:09:49;;;;;;;8.33;3.90;;;;;;;;;;5073115;28;20623;-53
2022/03/08 07:12:17;;;;;;;11.27;4.73;;;;;;;;;;5072334;28;20211;-48
2022/03/08 07:14:44;;;;;;;8.00;3.93;;;;;;;;;;5072902;28;20215;-47
2022/03/08 07:17:11;;;;;;;4.90;3.37;;;;;;;;;;5072061;28;20219;-47
2022/03/08 07:19:39;;;;;;;8.20;4.10;;;;;;;;;;5073315;28;20226;-46
2022/03/08 07:22:06;;;;;;;6.30;3.37;;;;;;;;;;5073875;28;20253;-47
2022/03/08 07:24:33;;;;;;;6.53;4.57;;;;;;;;;;5074122;28;20314;-48
2022/03/08 07:27:01;;;;;;;3.43;2.37;;;;;;;;;;5074037;28;20269;-50
2022/03/08 07:29:28;;;;;;;3.53;2.13;;;;;;;;;;5073222;28;20219;-49
2022/03/08 07:31:55;;;;;;;7.63;3.50;;;;;;;;;;5074026;28;20243;-47
2022/03/08 07:34:23;;;;;;;6.73;4.10;;;;;;;;;;5073494;28;20284;-46
2022/03/08 07:36:50;;;;;;;5.57;2.47;;;;;;;;;;5074084;28;20251;-46
2022/03/08 07:39:18;;;;;;;3.97;2.70;;;;;;;;;;5073386;28;20277;-48
2022/03/08 07:41:45;;;;;;;4.47;3.00;;;;;;;;;;5074540;28;20238;-46
2022/03/08 07:44:12;;;;;;;5.63;3.07;;;;;;;;;;5072682;28;20234;-46
2022/03/08 07:46:40;;;;;;;4.47;3.23;;;;;;;;;;5073984;28;20289;-47
2022/03/08 07:49:07;;;;;;;4.70;2.77;;;;;;;;;;5073397;28;20257;-48
2022/03/08 07:51:48;;;;;;;5.40;3.10;;;;;;;;;;5073955;28;20223;-46
2022/03/08 07:54:15;;;;;;;4.70;2.90;;;;;;;;;;5073426;28;20253;-46
2022/03/08 07:56:42;;;;;;;5.93;3.67;;;;;;;;;;5073830;28;20287;-45
2022/03/08 07:59:11;;;;;;;6.67;3.33;;;;;;;;;;5072842;28;20223;-47
2022/03/08 08:01:38;;;;;;;5.90;3.13;;;;;;;;;;5072166;28;20522;-46
2022/03/08 08:04:06;;;;;;;4.97;3.30;;;;;;;;;;5072033;28;20293;-50
2022/03/08 08:06:34;;;;;;;5.57;3.27;;;;;;;;;;5071365;28;20650;-49
2022/03/08 08:09:01;;;;;;;8.57;3.00;;;;;;;;;;5071179;28;20219;-51
2022/03/08 08:11:28;;;;;;;5.80;3.97;;;;;;;;;;5075481;28;20227;-47
2022/03/08 08:13:56;;;;;;;3.30;2.50;;;;;;;;;;5075013;28;20226;-47
2022/03/08 08:16:23;;;;;;;4.27;2.70;;;;;;;;;;5076020;28;20257;-46
2022/03/08 08:18:50;;;;;;;4.20;2.63;;;;;;;;;;5075688;28;20221;-49
2022/03/08 08:21:18;;;;;;;4.60;3.70;;;;;;;;;;5075920;28;20243;-46
2022/03/08 08:23:45;;;;;;;3.87;2.40;;;;;;;;;;5076132;28;20231;-46
2022/03/08 08:26:12;;;;;;;5.10;3.23;;;;;;;;;;5076124;28;20261;-47
2022/03/08 08:28:40;;;;;;;4.43;2.93;;;;;;;;;;5076312;28;20576;-47
2022/03/08 08:31:08;;;;;;;8.07;3.30;;;;;;;;;;5076300;28;20238;-50
2022/03/08 08:33:36;;;;;;;3.60;2.47;;;;;;;;;;5077334;28;20677;-46
2022/03/08 08:36:04;;;;;;;5.00;3.37;;;;;;;;;;5077003;28;20258;-47
2022/03/08 08:38:31;;;;;;;6.53;4.00;;;;;;;;;;5059488;28;20235;-46
2022/03/08 08:40:58;;;;;;;3.57;3.17;;;;;;;;;;5071256;28;20222;-49
2022/03/08 08:43:26;;;;;;;5.27;3.40;;;;;;;;;;5074349;28;20262;-51
2022/03/08 08:45:53;;;;;;;4.90;3.30;;;;;;;;;;5073885;28;20242;-48
2022/03/08 08:48:21;;;;;;;4.43;2.13;;;;;;;;;;5077321;28;20269;-48
2022/03/08 08:50:49;;;;;;;3.90;2.80;;;;;;;;;;5077761;28;20195;-47
2022/03/08 08:53:16;;;;;;;2.50;2.13;;;;;;;;;;5077159;28;20235;-49
2022/03/08 08:55:43;;;;;;;3.83;2.97;;;;;;;;;;5073819;28;20242;-48
2022/03/08 08:58:10;;;;;;;3.67;2.53;;;;;;;;;;5076231;28;20552;-47
2022/03/08 09:00:38;;;;;;;3.20;2.40;;;;;;;;;;5075972;28;20196;-48
2022/03/08 09:03:09;;;;;;;3.63;2.00;;;;;;;;;;5073427;28;20223;-47
2022/03/08 09:05:37;;;;;;;4.20;2.50;;;;;;;;;;5076227;28;20515;-49
2022/03/08 09:08:04;;;;;;;2.10;1.77;;;;;;;;;;5076724;28;20199;-49
2022/03/08 09:10:31;;;;;;;3.60;2.20;;;;;;;;;;5077063;28;20214;-54
2022/03/08 09:12:58;;;;;;;4.60;2.37;;;;;;;;;;5066507;28;20265;-48
2022/03/08 09:15:25;;;;;;;4.97;2.93;;;;;;;;;;5067708;28;20208;-46
2022/03/08 09:17:52;;;;;;;4.83;3.73;;;;;;;;;;5064696;28;20212;-48
2022/03/08 09:20:20;;;;;;;18.27;7.87;;;;;;;;;;5077116;28;20242;-46
2022/03/08 09:22:48;;;;;;;8.80;5.50;;;;;;;;;;5067907;28;20219;-48
2022/03/08 09:25:16;;;;;;;5.80;3.67;;;;;;;;;;5075672;28;20227;-49
2022/03/08 09:27:43;;;;;;;3.83;2.83;;;;;;;;;;5075477;28;20203;-48
2022/03/08 09:30:10;;;;;;;4.27;2.77;;;;;;;;;;5075954;28;20207;-47
2022/03/08 09:32:38;;;;;;;5.50;3.90;;;;;;;;;;5075608;28;20536;-48
2022/03/08 09:35:05;;;;;;;4.83;3.47;;;;;;;;;;5075390;28;20638;-48
2022/03/08 09:37:32;;;;;;;3.13;2.13;;;;;;;;;;5075749;28;20200;-50
2022/03/08 09:40:00;;;;;;;5.00;3.23;;;;;;;;;;5075641;28;20198;-47
2022/03/08 09:42:29;;;;;;;2.80;1.97;;;;;;;;;;5071399;28;20592;-48
2022/03/08 09:44:57;;;;;;;6.87;2.93;;;;;;;;;;5073982;28;20207;-49
2022/03/08 09:47:24;;;;;;;4.47;2.87;;;;;;;;;;5075169;28;20195;-47
2022/03/08 09:49:52;;;;;;;3.30;2.40;;;;;;;;;;5075317;28;20697;-49
2022/03/08 09:52:20;;;;;;;3.03;2.60;;;;;;;;;;5075147;28;20223;-47
2022/03/08 09:54:47;;;;;;;4.13;2.33;;;;;;;;;;5075148;28;20652;-47
2022/03/08 09:57:27;;;;;;;5.93;3.77;;;;;;;;;;5073422;28;20245;-46
2022/03/08 09:59:54;;;;;;;3.27;1.90;;;;;;;;;;5075253;28;20188;-47
2022/03/08 10:02:22;;;;;;;3.93;2.40;;;;;;;;;;5071677;28;20685;-50
2022/03/08 10:05:04;;;;;;;3.10;2.63;;;;;;;;;;5075200;28;20261;-49
2022/03/08 10:07:31;;;;;;;2.40;2.10;;;;;;;;;;5070801;28;20188;-50
2022/03/08 10:09:59;;;;;;;4.13;2.77;;;;;;;;;;5074350;28;20707;-48
2022/03/08 10:12:27;;;;;;;5.20;2.80;;;;;;;;;;5074353;28;20210;-48
2022/03/08 10:14:54;;;;;;;2.83;2.10;;;;;;;;;;5057151;28;20286;-48
2022/03/08 10:17:37;;;;;;;2.37;2.17;;;;;;;;;;5074799;28;20196;-47
2022/03/08 10:20:07;;;;;;;3.43;2.50;;;;;;;;;;5072229;28;20216;-47
2022/03/08 10:22:40;;;;;;;6.27;2.90;;;;;;;;;;5057612;28;20562;-48
2022/03/08 10:25:10;;;;;;;5.93;3.70;;;;;;;;;;5072845;28;20188;-47
2022/03/08 10:27:41;;;;;;;4.33;3.20;;;;;;;;;;5075263;28;20234;-48
2022/03/08 10:30:12;;;;;;;3.17;2.70;;;;;;;;;;5076519;28;20215;-48
2022/03/08 10:32:59;;;;;;;5.53;4.17;;;;;;;;;;5066418;28;20235;-47
2022/03/08 10:35:27;;;;;;;6.13;3.77;;;;;;;;;;5056066;28;20268;-48
2022/03/08 10:38:03;;;;;;;4.20;3.30;;;;;;;;;;5066175;28;20258;-47
2022/03/08 10:40:32;;;;;;;3.13;2.30;;;;;;;;;;5034020;28;20212;-48
2022/03/08 10:43:02;;;;;;;6.43;4.03;;;;;;;;;;5033864;28;20259;-47
2022/03/08 10:45:31;;;;;;;7.33;3.93;;;;;;;;;;5033759;28;20235;-48
2022/03/08 10:47:58;;;;;;;5.80;4.23;;;;;;;;;;5032297;28;20247;-48
2022/03/08 10:50:31;;;;;;;10.20;3.90;;;;;;;;;;5048513;28;20196;-48
2022/03/08 10:53:00;;;;;;;5.23;3.77;;;;;;;;;;5037713;28;20288;-48
2022/03/08 10:55:30;;;;;;;5.27;3.67;;;;;;;;;;5053145;28;20208;-50
2022/03/08 10:57:59;;;;;;;4.33;2.97;;;;;;;;;;5053856;28;20295;-48
2022/03/08 11:00:33;;;;;;;3.87;3.27;;;;;;;;;;5052094;28;20267;-47
2022/03/08 11:03:02;;;;;;;4.87;3.50;;;;;;;;;;5042106;28;20696;-46
2022/03/08 11:05:32;;;;;;;6.70;4.87;;;;;;;;;;5044803;28;20220;-46
2022/03/08 11:08:00;;;;;;;5.23;3.90;;;;;;;;;;5041325;28;20236;-45
2022/03/08 11:10:28;;;;;;;5.00;4.17;;;;;;;;;;5053497;28;20298;-46
2022/03/08 11:12:56;;;;;;;10.47;6.47;;;;;;;;;;5073586;28;20266;-46
2022/03/08 11:15:25;;;;;;;7.17;4.73;;;;;;;;;;5074242;28;20243;-45
2022/03/08 11:17:54;;;;;;;5.73;3.70;;;;;;;;;;5072846;28;20682;-45
2022/03/08 11:20:23;;;;;;;6.57;3.47;;;;;;;;;;5074521;28;20251;-46
2022/03/08 11:22:51;;;;;;;4.07;2.63;;;;;;;;;;5073339;28;20249;-48
2022/03/08 11:25:19;;;;;;;7.37;3.70;;;;;;;;;;5073970;28;20250;-47
2022/03/08 11:28:07;;;;;;;5.10;3.50;;;;;;;;;;5071666;28;20223;-46
2022/03/08 11:30:41;;;;;;;6.63;4.00;;;;;;;;;;5073868;28;20254;-47
2022/03/08 11:33:19;;;;;;;3.43;2.80;;;;;;;;;;5038980;28;20250;-46
2022/03/08 11:36:14;;;;;;;6.50;3.73;;;;;;;;;;5053844;28;20243;-46
2022/03/08 11:38:41;;;;;;;5.53;3.60;;;;;;;;;;5068268;28;20561;-46
2022/03/08 11:41:09;;;;;;;4.20;3.00;;;;;;;;;;5074254;28;20575;-48
2022/03/08 11:43:40;;;;;;;6.53;4.13;;;;;;;;;;5073075;28;20227;-46
2022/03/08 11:46:18;;;;;;;5.37;3.73;;;;;;;;;;5073620;28;20554;-47
2022/03/08 11:48:50;;;;;;;6.43;4.30;;;;;;;;;;5069149;28;20231;-46
2022/03/08 11:51:17;;;;;;;4.30;3.30;;;;;;;;;;5074297;28;20227;-46
2022/03/08 11:53:47;;;;;;;5.13;3.50;;;;;;;;;;5071965;28;20322;-46
2022/03/08 11:56:20;;;;;;;8.47;4.10;;;;;;;;;;5055646;28;20601;-49
2022/03/08 11:58:50;;;;;;;6.27;2.97;;;;;;;;;;5068546;28;20585;-47
2022/03/08 12:01:26;;;;;;;8.00;4.17;;;;;;;;;;5072524;28;20518;-46
2022/03/08 12:03:55;;;;;;;4.73;3.37;;;;;;;;;;5071939;28;20246;-49
2022/03/08 12:06:35;;;;;;;5.63;3.87;;;;;;;;;;5070502;28;20592;-49
2022/03/08 12:09:12;;;;;;;5.07;3.47;;;;;;;;;;5070081;28;20681;-47
2022/03/08 12:11:50;;;;;;;3.53;3.00;;;;;;;;;;5073453;28;20223;-45
2022/03/08 12:14:26;;;;;;;5.00;3.60;;;;;;;;;;5073398;28;20269;-47
2022/03/08 12:17:08;;;;;;;3.23;2.87;;;;;;;;;;5073156;28;20223;-47
2022/03/08 12:19:38;;;;;;;5.30;3.13;;;;;;;;;;5071654;28;20276;-47
2022/03/08 12:22:10;;;;;;;4.30;3.40;;;;;;;;;;5072572;28;20250;-47
2022/03/08 12:24:40;;;;;;;4.50;3.10;;;;;;;;;;5071853;28;20267;-48
2022/03/08 12:27:08;;;;;;;7.00;3.67;;;;;;;;;;5072454;28;20553;-48
2022/03/08 12:30:15;;;;;;;6.40;3.70;;;;;;;;;;5066558;28;20219;-48
2022/03/08 12:32:43;;;;;;;5.97;3.80;;;;;;;;;;5070282;28;20235;-48
2022/03/08 12:35:17;;;;;;;6.83;3.33;;;;;;;;;;5073228;28;20315;-48
2022/03/08 12:37:46;;;;;;;6.50;4.03;;;;;;;;;;5053100;28;20242;-49
2022/03/08 12:40:16;;;;;;;6.37;3.87;;;;;;;;;;5071930;28;20212;-47
2022/03/08 12:42:46;;;;;;;5.50;3.77;;;;;;;;;;5072050;28;20522;-48
2022/03/08 12:45:30;;;;;;;6.63;3.53;;;;;;;;;;5054938;28;20296;-49
2022/03/08 12:48:08;;;;;;;4.80;3.43;;;;;;;;;;5071686;28;20222;-47
2022/03/08 12:50:46;;;;;;;8.30;4.70;;;;;;;;;;5071536;28;20300;-48
2022/03/08 12:53:25;;;;;;;5.03;3.53;;;;;;;;;;5072017;28;20223;-48
2022/03/08 12:55:59;;;;;;;6.53;3.97;;;;;;;;;;5072944;28;20429;-47
2022/03/08 12:58:29;;;;;;;7.37;3.53;;;;;;;;;;5076702;28;20216;-49
2022/03/08 13:00:58;;;;;;;8.13;3.90;;;;;;;;;;5076419;28;20239;-48
2022/03/08 13:03:28;;;;;;;5.57;3.33;;;;;;;;;;5074130;28;20257;-50
2022/03/08 13:06:00;;;;;;;5.77;3.60;;;;;;;;;;5075126;28;20211;-46
2022/03/08 13:08:30;;;;;;;7.57;3.93;;;;;;;;;;5075911;28;20220;-47
2022/03/08 13:11:02;;;;;;;6.57;4.37;;;;;;;;;;5075801;28;20219;-45
2022/03/08 13:13:49;;;;;;;6.70;4.13;;;;;;;;;;5075840;28;20258;-47
2022/03/08 13:16:18;;;;;;;5.30;3.33;;;;;;;;;;5076239;28;20223;-48
2022/03/08 13:18:45;;;;;;;7.47;3.43;;;;;;;;;;5075734;28;20628;-46
2022/03/08 13:21:14;;;;;;;7.63;3.87;;;;;;;;;;5076543;28;20689;-46
2022/03/08 13:23:44;;;;;;;4.80;3.40;;;;;;;;;;5076205;28;20298;-47
2022/03/08 13:26:49;;;;;;;6.80;4.40;;;;;;;;;;5073782;28;20250;-47
2022/03/08 13:29:00;;;;;;;5.07;3.23;;;;;;;;;;5073508;28;20219;-46
2022/03/08 13:31:28;;;;;;;5.20;3.07;;;;;;;;;;5056472;28;20248;-47
2022/03/08 13:33:56;;;;;;;6.03;3.87;;;;;;;;;;5075235;28;20219;-49
2022/03/08 13:36:23;;;;;;;6.43;3.63;;;;;;;;;;5075800;28;20226;-46
2022/03/08 13:38:55;;;;;;;6.17;4.00;;;;;;;;;;5075772;28;20273;-48
2022/03/08 13:41:24;;;;;;;6.77;4.13;;;;;;;;;;5069810;28;20211;-49
2022/03/08 13:43:56;;;;;;;5.13;3.70;;;;;;;;;;5073800;28;20536;-48
2022/03/08 13:46:26;;;;;;;9.57;3.80;;;;;;;;;;5073167;28;20211;-48
2022/03/08 13:49:06;;;;;;;6.30;3.83;;;;;;;;;;5074433;28;20251;-45
2022/03/08 13:51:36;;;;;;;7.20;3.33;;;;;;;;;;5074170;28;20712;-47
2022/03/08 13:54:06;;;;;;;4.10;2.73;;;;;;;;;;5074073;28;20284;-48
2022/03/08 13:56:47;;;;;;;3.90;3.10;;;;;;;;;;5074405;28;20233;-46
2022/03/08 13:59:30;;;;;;;4.73;2.83;;;;;;;;;;5071733;28;20226;-46
2022/03/08 14:02:02;;;;;;;5.73;2.87;;;;;;;;;;5073523;28;20263;-49
2022/03/08 14:04:32;;;;;;;4.37;3.10;;;;;;;;;;5072335;28;20330;-48
2022/03/08 14:07:02;;;;;;;7.97;3.23;;;;;;;;;;5073500;28;20294;-48
2022/03/08 14:09:29;;;;;;;5.60;3.13;;;;;;;;;;5070837;28;20223;-48
2022/03/08 14:11:58;;;;;;;4.37;3.10;;;;;;;;;;5072319;28;20654;-48
2022/03/08 14:14:28;;;;;;;4.87;3.27;;;;;;;;;;5070711;28;20211;-47
2022/03/08 14:16:56;;;;;;;7.07;3.30;;;;;;;;;;5074328;28;20306;-47
2022/03/08 14:19:42;;;;;;;6.17;3.73;;;;;;;;;;5073559;28;20239;-46
2022/03/08 14:22:09;;;;;;;7.27;3.60;;;;;;;;;;5071590;28;20305;-46
2022/03/08 14:24:36;;;;;;;4.83;3.60;;;;;;;;;;5073603;28;20308;-47
2022/03/08 14:27:03;;;;;;;5.50;3.83;;;;;;;;;;5073731;28;20680;-46
2022/03/08 14:29:33;;;;;;;6.47;4.23;;;;;;;;;;5059987;28;20319;-46
2022/03/08 14:32:03;;;;;;;6.00;4.07;;;;;;;;;;5055494;28;20266;-47
2022/03/08 14:34:32;;;;;;;5.47;4.00;;;;;;;;;;5078265;28;20607;-47
2022/03/08 14:37:01;;;;;;;7.57;3.63;;;;;;;;;;5094941;28;20280;-48
2022/03/08 14:39:31;;;;;;;5.10;3.93;;;;;;;;;;5074559;28;20223;-46
2022/03/08 14:42:09;;;;;;;7.30;3.33;;;;;;;;;;5075181;28;20294;-47
2022/03/08 14:44:39;;;;;;;5.47;3.30;;;;;;;;;;5073464;28;20254;-50
2022/03/08 14:47:08;;;;;;;6.03;3.33;;;;;;;;;;5070593;28;20597;-47
2022/03/08 14:49:37;;;;;;;6.33;3.40;;;;;;;;;;5070165;28;20223;-49